sensor_id;sensor_type;location;lat;lon;timestamp;temperature;humidity
1379;DHT22;683;48.738;9.226;2023-07-30T00:01:00;16.80;99.90
1379;DHT22;683;48.738;9.226;2023-07-30T00:03:27;16.80;99.90
1379;DHT22;683;48.738;9.226;2023-07-30T00:05:55;16.80;99.90
1379;DHT22;683;48.738;9.226;2023-07-30T00:08:24;16.80;99.90
1379;DHT22;683;48.738;9.226;2023-07-30T00:10:51;16.70;99.90
1379;DHT22;683;48.738;9.226;2023-07-30T00:13:18;16.70;99.90
1379;DHT22;683;48.738;9.226;2023-07-30T00:15:45;16.70;99.90
1379;DHT22;683;48.738;9.226;2023-07-30T00:18:13;16.70;99.90
1379;DHT22;683;48.738;9.226;2023-07-30T00:20:40;16.70;99.90
1379;DHT22;683;48.738;9.226;2023-07-30T00:23:07;16.70;99.90
1379;DHT22;683;48.738;9.226;2023-07-30T00:25:36;16.80;99.90
1379;DHT22;683;48.738;9.226;2023-07-30T00:28:03;16.80;99.90
1379;DHT22;683;48.738;9.226;2023-07-30T00:30:30;16.70;99.90
1379;DHT22;683;48.738;9.226;2023-07-30T00:32:57;16.70;99.90
1379;DHT22;683;48.738;9.226;2023-07-30T00:35:24;16.70;99.90
1379;DHT22;683;48.738;9.226;2023-07-30T00:37:52;16.70;99.90
1379;DHT22;683;48.738;9.226;2023-07-30T00:40:19;16.60;99.90
1379;DHT22;683;48.738;9.226;2023-07-30T00:42:47;16.50;99.90
1379;DHT22;683;48.738;9.226;2023-07-30T00:45:15;16.50;99.90
1379;DHT22;683;48.738;9.226;2023-07-30T00:47:43;16.50;99.90
1379;DHT22;683;48.738;9.226;2023-07-30T00:50:12;16.50;99.90
1379;DHT22;683;48.738;9.226;2023-07-30T00:52:44;16.50;99.90
1379;DHT22;683;48.738;9.226;2023-07-30T00:55:11;16.50;99.90
1379;DHT22;683;48.738;9.226;2023-07-30T00:57:39;16.40;99.90
1379;DHT22;683;48.738;9.226;2023-07-30T01:00:10;16.50;99.90
1379;DHT22;683;48.738;9.226;2023-07-30T01:02:37;16.40;99.90
1379;DHT22;683;48.738;9.226;2023-07-30T01:05:05;16.50;99.90
1379;DHT22;683;48.738;9.226;2023-07-30T01:07:33;16.50;99.90
1379;DHT22;683;48.738;9.226;2023-07-30T01:10:01;16.50;99.90
1379;DHT22;683;48.738;9.226;2023-07-30T01:12:30;16.50;99.90
1379;DHT22;683;48.738;9.226;2023-07-30T01:14:58;16.50;99.90
1379;DHT22;683;48.738;9.226;2023-07-30T01:17:28;16.60;99.90
1379;DHT22;683;48.738;9.226;2023-07-30T01:19:55;16.60;99.90
1379;DHT22;683;48.738;9.226;2023-07-30T01:22:24;16.60;99.90
1379;DHT22;683;48.738;9.226;2023-07-30T01:24:51;16.70;99.90
1379;DHT22;683;48.738;9.226;2023-07-30T01:27:24;16.70;99.90
1379;DHT22;683;48.738;9.226;2023-07-30T01:29:55;16.70;99.90
1379;DHT22;683;48.738;9.226;2023-07-30T01:32:25;16.60;99.90
1379;DHT22;683;48.738;9.226;2023-07-30T01:34:54;16.70;99.90
1379;DHT22;683;48.738;9.226;2023-07-30T01:37:26;16.60;99.90
1379;DHT22;683;48.738;9.226;2023-07-30T01:39:53;16.60;99.90
1379;DHT22;683;48.738;9.226;2023-07-30T01:42:20;16.60;99.90
1379;DHT22;683;48.738;9.226;2023-07-30T01:44:47;16.60;99.90
1379;DHT22;683;48.738;9.226;2023-07-30T01:47:15;16.60;99.90
1379;DHT22;683;48.738;9.226;2023-07-30T01:49:42;16.60;99.90
1379;DHT22;683;48.738;9.226;2023-07-30T01:52:09;16.60;99.90
1379;DHT22;683;48.738;9.226;2023-07-30T01:54:37;16.50;99.90
1379;DHT22;683;48.738;9.226;2023-07-30T01:57:04;16.50;99.90
1379;DHT22;683;48.738;9.226;2023-07-30T01:59:32;16.50;99.90
1379;DHT22;683;48.738;9.226;2023-07-30T02:01:59;16.40;99.90
1379;DHT22;683;48.738;9.226;2023-07-30T02:04:26;16.30;99.90
1379;DHT22;683;48.738;9.226;2023-07-30T02:06:53;16.30;99.90
1379;DHT22;683;48.738;9.226;2023-07-30T02:09:20;16.30;99.90
1379;DHT22;683;48.738;9.226;2023-07-30T02:11:49;16.30;99.90
1379;DHT22;683;48.738;9.226;2023-07-30T02:14:18;16.40;99.90
1379;DHT22;683;48.738;9.226;2023-07-30T02:16:45;16.40;99.90
1379;DHT22;683;48.738;9.226;2023-07-30T02:19:12;16.40;99.90
1379;DHT22;683;48.738;9.226;2023-07-30T02:21:39;16.40;99.90
1379;DHT22;683;48.738;9.226;2023-07-30T02:24:08;16.40;99.90
1379;DHT22;683;48.738;9.226;2023-07-30T02:26:37;16.40;99.90
1379;DHT22;683;48.738;9.226;2023-07-30T02:29:06;16.30;99.90
1379;DHT22;683;48.738;9.226;2023-07-30T02:31:33;16.30;99.90
1379;DHT22;683;48.738;9.226;2023-07-30T02:34:00;16.30;99.90
1379;DHT22;683;48.738;9.226;2023-07-30T02:36:27;16.30;99.90
1379;DHT22;683;48.738;9.226;2023-07-30T02:38:55;16.30;99.90
1379;DHT22;683;48.738;9.226;2023-07-30T02:41:22;16.30;99.90
1379;DHT22;683;48.738;9.226;2023-07-30T02:43:49;16.30;99.90
1379;DHT22;683;48.738;9.226;2023-07-30T02:46:18;16.30;99.90
1379;DHT22;683;48.738;9.226;2023-07-30T02:48:45;16.30;99.90
1379;DHT22;683;48.738;9.226;2023-07-30T02:51:12;16.40;99.90
1379;DHT22;683;48.738;9.226;2023-07-30T02:53:39;16.40;99.90
1379;DHT22;683;48.738;9.226;2023-07-30T02:56:06;16.30;99.90
1379;DHT22;683;48.738;9.226;2023-07-30T02:58:33;16.30;99.90
1379;DHT22;683;48.738;9.226;2023-07-30T03:01:05;16.20;99.90
1379;DHT22;683;48.738;9.226;2023-07-30T03:03:34;16.20;99.90
1379;DHT22;683;48.738;9.226;2023-07-30T03:06:02;16.10;99.90
1379;DHT22;683;48.738;9.226;2023-07-30T03:08:29;16.10;99.90
1379;DHT22;683;48.738;9.226;2023-07-30T03:10:58;16.10;99.90
1379;DHT22;683;48.738;9.226;2023-07-30T03:13:25;16.00;99.90
1379;DHT22;683;48.738;9.226;2023-07-30T03:15:53;16.00;99.90
1379;DHT22;683;48.738;9.226;2023-07-30T03:18:20;15.90;99.90
1379;DHT22;683;48.738;9.226;2023-07-30T03:20:49;15.90;99.90
1379;DHT22;683;48.738;9.226;2023-07-30T03:23:16;15.90;99.90
1379;DHT22;683;48.738;9.226;2023-07-30T03:25:43;15.90;99.90
1379;DHT22;683;48.738;9.226;2023-07-30T03:28:10;15.90;99.90
1379;DHT22;683;48.738;9.226;2023-07-30T03:30:37;15.90;99.90
1379;DHT22;683;48.738;9.226;2023-07-30T03:33:05;15.90;99.90
1379;DHT22;683;48.738;9.226;2023-07-30T03:35:32;15.90;99.90
1379;DHT22;683;48.738;9.226;2023-07-30T03:38:02;15.90;99.90
1379;DHT22;683;48.738;9.226;2023-07-30T03:40:30;15.90;99.90
1379;DHT22;683;48.738;9.226;2023-07-30T03:42:57;16.00;99.90
1379;DHT22;683;48.738;9.226;2023-07-30T03:45:24;16.00;99.90
1379;DHT22;683;48.738;9.226;2023-07-30T03:47:51;16.10;99.90
1379;DHT22;683;48.738;9.226;2023-07-30T03:50:18;16.10;99.90
1379;DHT22;683;48.738;9.226;2023-07-30T03:52:47;16.10;99.90
1379;DHT22;683;48.738;9.226;2023-07-30T03:55:15;16.20;99.90
1379;DHT22;683;48.738;9.226;2023-07-30T03:57:42;16.20;99.90
1379;DHT22;683;48.738;9.226;2023-07-30T04:00:10;16.20;99.90
1379;DHT22;683;48.738;9.226;2023-07-30T04:02:41;16.20;99.90
1379;DHT22;683;48.738;9.226;2023-07-30T04:05:08;16.20;99.90
1379;DHT22;683;48.738;9.226;2023-07-30T04:07:35;16.20;99.90
1379;DHT22;683;48.738;9.226;2023-07-30T04:10:02;16.20;99.90
1379;DHT22;683;48.738;9.226;2023-07-30T04:12:31;16.30;99.90
1379;DHT22;683;48.738;9.226;2023-07-30T04:14:58;16.30;99.90
1379;DHT22;683;48.738;9.226;2023-07-30T04:17:27;16.30;99.90
1379;DHT22;683;48.738;9.226;2023-07-30T04:19:54;16.30;99.90
1379;DHT22;683;48.738;9.226;2023-07-30T04:22:21;16.30;99.90
1379;DHT22;683;48.738;9.226;2023-07-30T04:24:48;16.30;99.90
1379;DHT22;683;48.738;9.226;2023-07-30T04:27:16;16.30;99.90
1379;DHT22;683;48.738;9.226;2023-07-30T04:29:44;16.30;99.90
1379;DHT22;683;48.738;9.226;2023-07-30T04:32:12;16.30;99.90
1379;DHT22;683;48.738;9.226;2023-07-30T04:34:39;16.30;99.90
1379;DHT22;683;48.738;9.226;2023-07-30T04:37:06;16.30;99.90
1379;DHT22;683;48.738;9.226;2023-07-30T04:39:35;16.30;99.90
1379;DHT22;683;48.738;9.226;2023-07-30T04:42:03;16.20;99.90
1379;DHT22;683;48.738;9.226;2023-07-30T04:44:30;16.30;99.90
1379;DHT22;683;48.738;9.226;2023-07-30T04:47:06;16.30;99.90
1379;DHT22;683;48.738;9.226;2023-07-30T04:49:33;16.30;99.90
1379;DHT22;683;48.738;9.226;2023-07-30T04:52:03;16.30;99.90
1379;DHT22;683;48.738;9.226;2023-07-30T04:54:30;16.30;99.90
1379;DHT22;683;48.738;9.226;2023-07-30T04:56:57;16.40;99.90
1379;DHT22;683;48.738;9.226;2023-07-30T04:59:24;16.40;99.90
1379;DHT22;683;48.738;9.226;2023-07-30T05:01:52;16.40;99.90
1379;DHT22;683;48.738;9.226;2023-07-30T05:04:20;16.40;99.90
1379;DHT22;683;48.738;9.226;2023-07-30T05:06:47;16.40;99.90
1379;DHT22;683;48.738;9.226;2023-07-30T05:09:15;16.50;99.90
1379;DHT22;683;48.738;9.226;2023-07-30T05:11:42;16.60;99.90
1379;DHT22;683;48.738;9.226;2023-07-30T05:14:09;16.60;99.90
1379;DHT22;683;48.738;9.226;2023-07-30T05:16:36;16.70;99.90
1379;DHT22;683;48.738;9.226;2023-07-30T05:19:03;16.70;99.90
1379;DHT22;683;48.738;9.226;2023-07-30T05:21:32;16.60;99.90
1379;DHT22;683;48.738;9.226;2023-07-30T05:23:59;16.60;99.90
1379;DHT22;683;48.738;9.226;2023-07-30T05:26:26;16.60;99.90
1379;DHT22;683;48.738;9.226;2023-07-30T05:28:53;16.50;99.90
1379;DHT22;683;48.738;9.226;2023-07-30T05:31:20;16.50;99.90
1379;DHT22;683;48.738;9.226;2023-07-30T05:33:49;16.60;99.90
1379;DHT22;683;48.738;9.226;2023-07-30T05:36:16;16.60;99.90
1379;DHT22;683;48.738;9.226;2023-07-30T05:38:44;16.70;99.90
1379;DHT22;683;48.738;9.226;2023-07-30T05:41:12;16.80;99.90
1379;DHT22;683;48.738;9.226;2023-07-30T05:43:39;16.90;99.90
1379;DHT22;683;48.738;9.226;2023-07-30T05:46:06;17.00;99.90
1379;DHT22;683;48.738;9.226;2023-07-30T05:48:33;17.00;99.90
1379;DHT22;683;48.738;9.226;2023-07-30T05:51:01;17.00;99.90
1379;DHT22;683;48.738;9.226;2023-07-30T05:53:28;17.00;99.90
1379;DHT22;683;48.738;9.226;2023-07-30T05:55:56;17.10;99.90
1379;DHT22;683;48.738;9.226;2023-07-30T05:58:23;17.00;99.90
1379;DHT22;683;48.738;9.226;2023-07-30T06:00:50;17.10;99.90
1379;DHT22;683;48.738;9.226;2023-07-30T06:03:18;17.10;99.90
1379;DHT22;683;48.738;9.226;2023-07-30T06:05:45;17.10;99.90
1379;DHT22;683;48.738;9.226;2023-07-30T06:08:12;17.20;99.90
1379;DHT22;683;48.738;9.226;2023-07-30T06:10:39;17.30;99.90
1379;DHT22;683;48.738;9.226;2023-07-30T06:13:08;17.40;99.90
1379;DHT22;683;48.738;9.226;2023-07-30T06:15:35;17.60;99.90
1379;DHT22;683;48.738;9.226;2023-07-30T06:18:03;17.60;99.90
1379;DHT22;683;48.738;9.226;2023-07-30T06:20:30;17.60;99.90
1379;DHT22;683;48.738;9.226;2023-07-30T06:22:57;17.60;99.90
1379;DHT22;683;48.738;9.226;2023-07-30T06:25:24;17.60;99.90
1379;DHT22;683;48.738;9.226;2023-07-30T06:27:51;17.70;99.90
1379;DHT22;683;48.738;9.226;2023-07-30T06:30:20;17.70;99.90
1379;DHT22;683;48.738;9.226;2023-07-30T06:32:47;17.60;99.90
1379;DHT22;683;48.738;9.226;2023-07-30T06:35:14;17.60;99.90
1379;DHT22;683;48.738;9.226;2023-07-30T06:37:41;17.70;99.90
1379;DHT22;683;48.738;9.226;2023-07-30T06:40:08;17.80;99.90
1379;DHT22;683;48.738;9.226;2023-07-30T06:42:35;17.80;99.90
1379;DHT22;683;48.738;9.226;2023-07-30T06:45:04;17.90;99.90
1379;DHT22;683;48.738;9.226;2023-07-30T06:47:32;18.10;99.90
1379;DHT22;683;48.738;9.226;2023-07-30T06:49:59;18.30;99.90
1379;DHT22;683;48.738;9.226;2023-07-30T06:52:27;18.40;99.90
1379;DHT22;683;48.738;9.226;2023-07-30T06:54:54;18.60;99.90
1379;DHT22;683;48.738;9.226;2023-07-30T06:57:21;18.80;99.90
1379;DHT22;683;48.738;9.226;2023-07-30T06:59:48;18.90;99.90
1379;DHT22;683;48.738;9.226;2023-07-30T07:02:15;19.00;99.90
1379;DHT22;683;48.738;9.226;2023-07-30T07:04:44;18.90;99.90
1379;DHT22;683;48.738;9.226;2023-07-30T07:07:15;18.80;99.90
1379;DHT22;683;48.738;9.226;2023-07-30T07:09:42;18.50;99.90
1379;DHT22;683;48.738;9.226;2023-07-30T07:12:09;18.40;99.90
1379;DHT22;683;48.738;9.226;2023-07-30T07:14:36;18.40;99.90
1379;DHT22;683;48.738;9.226;2023-07-30T07:17:05;18.30;99.90
1379;DHT22;683;48.738;9.226;2023-07-30T07:19:32;18.30;99.90
1379;DHT22;683;48.738;9.226;2023-07-30T07:22:04;18.40;99.90
1379;DHT22;683;48.738;9.226;2023-07-30T07:24:31;18.50;99.90
1379;DHT22;683;48.738;9.226;2023-07-30T07:26:58;18.60;99.90
1379;DHT22;683;48.738;9.226;2023-07-30T07:29:25;18.70;99.90
1379;DHT22;683;48.738;9.226;2023-07-30T07:31:53;18.60;99.90
1379;DHT22;683;48.738;9.226;2023-07-30T07:34:23;18.50;99.90
1379;DHT22;683;48.738;9.226;2023-07-30T07:36:50;18.50;99.90
1379;DHT22;683;48.738;9.226;2023-07-30T07:39:20;18.50;99.90
1379;DHT22;683;48.738;9.226;2023-07-30T07:41:48;18.40;99.90
1379;DHT22;683;48.738;9.226;2023-07-30T07:44:15;18.20;99.90
1379;DHT22;683;48.738;9.226;2023-07-30T07:46:42;18.10;99.90
1379;DHT22;683;48.738;9.226;2023-07-30T07:49:09;18.00;99.90
1379;DHT22;683;48.738;9.226;2023-07-30T07:51:36;17.90;99.90
1379;DHT22;683;48.738;9.226;2023-07-30T07:54:03;17.80;99.90
1379;DHT22;683;48.738;9.226;2023-07-30T07:56:32;17.80;99.90
1379;DHT22;683;48.738;9.226;2023-07-30T07:58:59;17.90;99.90
1379;DHT22;683;48.738;9.226;2023-07-30T08:01:26;18.00;99.90
1379;DHT22;683;48.738;9.226;2023-07-30T08:03:53;18.20;99.90
1379;DHT22;683;48.738;9.226;2023-07-30T08:06:21;18.40;99.90
1379;DHT22;683;48.738;9.226;2023-07-30T08:08:48;18.50;99.90
1379;DHT22;683;48.738;9.226;2023-07-30T08:11:15;18.60;99.90
1379;DHT22;683;48.738;9.226;2023-07-30T08:13:44;18.90;99.90
1379;DHT22;683;48.738;9.226;2023-07-30T08:16:11;19.00;99.90
1379;DHT22;683;48.738;9.226;2023-07-30T08:18:39;19.30;99.90
1379;DHT22;683;48.738;9.226;2023-07-30T08:21:08;19.50;99.90
1379;DHT22;683;48.738;9.226;2023-07-30T08:23:36;19.60;99.90
1379;DHT22;683;48.738;9.226;2023-07-30T08:26:03;19.70;99.90
1379;DHT22;683;48.738;9.226;2023-07-30T08:28:30;19.80;99.90
1379;DHT22;683;48.738;9.226;2023-07-30T08:31:01;19.90;99.90
1379;DHT22;683;48.738;9.226;2023-07-30T08:33:29;20.00;99.90
1379;DHT22;683;48.738;9.226;2023-07-30T08:35:56;20.10;99.90
1379;DHT22;683;48.738;9.226;2023-07-30T08:38:23;20.30;99.90
1379;DHT22;683;48.738;9.226;2023-07-30T08:40:50;20.50;99.90
1379;DHT22;683;48.738;9.226;2023-07-30T08:43:18;20.70;99.90
1379;DHT22;683;48.738;9.226;2023-07-30T08:45:48;21.00;99.90
1379;DHT22;683;48.738;9.226;2023-07-30T08:48:17;21.20;99.90
1379;DHT22;683;48.738;9.226;2023-07-30T08:50:45;21.30;99.90
1379;DHT22;683;48.738;9.226;2023-07-30T08:53:13;21.40;99.90
1379;DHT22;683;48.738;9.226;2023-07-30T08:55:41;21.30;99.90
1379;DHT22;683;48.738;9.226;2023-07-30T08:58:09;21.20;99.90
1379;DHT22;683;48.738;9.226;2023-07-30T09:00:38;21.20;99.90
1379;DHT22;683;48.738;9.226;2023-07-30T09:03:07;21.20;99.90
1379;DHT22;683;48.738;9.226;2023-07-30T09:05:37;21.50;99.90
1379;DHT22;683;48.738;9.226;2023-07-30T09:08:04;21.70;99.90
1379;DHT22;683;48.738;9.226;2023-07-30T09:10:33;22.00;99.90
1379;DHT22;683;48.738;9.226;2023-07-30T09:13:02;22.30;99.90
1379;DHT22;683;48.738;9.226;2023-07-30T09:15:30;22.50;99.90
1379;DHT22;683;48.738;9.226;2023-07-30T09:17:58;22.70;99.90
1379;DHT22;683;48.738;9.226;2023-07-30T09:20:26;23.00;99.90
1379;DHT22;683;48.738;9.226;2023-07-30T09:22:56;23.30;99.90
1379;DHT22;683;48.738;9.226;2023-07-30T09:25:23;23.20;99.90
1379;DHT22;683;48.738;9.226;2023-07-30T09:27:51;22.90;99.90
1379;DHT22;683;48.738;9.226;2023-07-30T09:30:22;22.50;99.90
1379;DHT22;683;48.738;9.226;2023-07-30T09:32:52;22.10;99.90
1379;DHT22;683;48.738;9.226;2023-07-30T09:35:20;21.70;99.90
1379;DHT22;683;48.738;9.226;2023-07-30T09:37:48;21.40;99.90
1379;DHT22;683;48.738;9.226;2023-07-30T09:40:16;21.00;99.90
1379;DHT22;683;48.738;9.226;2023-07-30T09:42:46;20.80;99.90
1379;DHT22;683;48.738;9.226;2023-07-30T09:45:17;20.30;99.90
1379;DHT22;683;48.738;9.226;2023-07-30T09:47:47;19.90;99.90
1379;DHT22;683;48.738;9.226;2023-07-30T09:50:15;19.90;99.90
1379;DHT22;683;48.738;9.226;2023-07-30T09:52:42;20.00;99.90
1379;DHT22;683;48.738;9.226;2023-07-30T09:55:10;20.20;99.90
1379;DHT22;683;48.738;9.226;2023-07-30T09:57:39;20.50;99.90
1379;DHT22;683;48.738;9.226;2023-07-30T10:00:07;20.70;99.90
1379;DHT22;683;48.738;9.226;2023-07-30T10:02:38;21.10;99.90
1379;DHT22;683;48.738;9.226;2023-07-30T10:05:10;21.60;99.90
1379;DHT22;683;48.738;9.226;2023-07-30T10:07:41;22.10;99.90
1379;DHT22;683;48.738;9.226;2023-07-30T10:10:09;22.40;99.90
1379;DHT22;683;48.738;9.226;2023-07-30T10:12:39;22.50;99.90
1379;DHT22;683;48.738;9.226;2023-07-30T10:15:07;22.60;99.90
1379;DHT22;683;48.738;9.226;2023-07-30T10:17:35;22.90;99.90
1379;DHT22;683;48.738;9.226;2023-07-30T10:20:22;23.10;99.50
1379;DHT22;683;48.738;9.226;2023-07-30T10:22:52;23.50;97.60
1379;DHT22;683;48.738;9.226;2023-07-30T10:25:21;23.80;96.90
1379;DHT22;683;48.738;9.226;2023-07-30T10:27:51;24.00;95.50
1379;DHT22;683;48.738;9.226;2023-07-30T10:30:20;24.10;92.40
1379;DHT22;683;48.738;9.226;2023-07-30T10:33:04;24.00;91.40
1379;DHT22;683;48.738;9.226;2023-07-30T10:35:41;24.00;91.20
1379;DHT22;683;48.738;9.226;2023-07-30T10:38:19;24.10;93.10
1379;DHT22;683;48.738;9.226;2023-07-30T10:41:05;24.30;93.30
1379;DHT22;683;48.738;9.226;2023-07-30T10:43:36;24.40;91.40
1379;DHT22;683;48.738;9.226;2023-07-30T10:46:04;24.30;89.20
1379;DHT22;683;48.738;9.226;2023-07-30T10:48:32;24.20;89.90
1379;DHT22;683;48.738;9.226;2023-07-30T10:51:01;24.10;89.50
1379;DHT22;683;48.738;9.226;2023-07-30T10:53:28;23.90;90.10
1379;DHT22;683;48.738;9.226;2023-07-30T10:55:58;24.20;90.10
1379;DHT22;683;48.738;9.226;2023-07-30T10:58:27;24.50;88.00
1379;DHT22;683;48.738;9.226;2023-07-30T11:00:56;24.80;83.90
1379;DHT22;683;48.738;9.226;2023-07-30T11:03:24;25.10;86.10
1379;DHT22;683;48.738;9.226;2023-07-30T11:05:53;25.20;81.30
1379;DHT22;683;48.738;9.226;2023-07-30T11:08:30;25.30;81.70
1379;DHT22;683;48.738;9.226;2023-07-30T11:10:59;25.10;83.10
1379;DHT22;683;48.738;9.226;2023-07-30T11:13:26;24.90;82.10
1379;DHT22;683;48.738;9.226;2023-07-30T11:15:53;24.80;82.20
1379;DHT22;683;48.738;9.226;2023-07-30T11:18:22;24.70;83.80
1379;DHT22;683;48.738;9.226;2023-07-30T11:20:49;24.40;79.90
1379;DHT22;683;48.738;9.226;2023-07-30T11:23:18;23.90;80.00
1379;DHT22;683;48.738;9.226;2023-07-30T11:25:46;23.50;81.30
1379;DHT22;683;48.738;9.226;2023-07-30T11:28:26;23.20;82.30
1379;DHT22;683;48.738;9.226;2023-07-30T11:30:53;23.10;84.00
1379;DHT22;683;48.738;9.226;2023-07-30T11:33:22;23.00;85.60
1379;DHT22;683;48.738;9.226;2023-07-30T11:35:50;23.00;85.30
1379;DHT22;683;48.738;9.226;2023-07-30T11:38:18;23.00;86.50
1379;DHT22;683;48.738;9.226;2023-07-30T11:40:46;23.10;85.50
1379;DHT22;683;48.738;9.226;2023-07-30T11:43:14;23.10;85.30
1379;DHT22;683;48.738;9.226;2023-07-30T11:45:41;23.10;86.80
1379;DHT22;683;48.738;9.226;2023-07-30T11:48:09;23.20;85.00
1379;DHT22;683;48.738;9.226;2023-07-30T11:50:49;23.10;84.70
1379;DHT22;683;48.738;9.226;2023-07-30T11:53:16;23.00;84.30
1379;DHT22;683;48.738;9.226;2023-07-30T11:55:45;23.10;85.30
1379;DHT22;683;48.738;9.226;2023-07-30T11:58:12;23.30;84.90
1379;DHT22;683;48.738;9.226;2023-07-30T12:00:43;23.50;84.90
1379;DHT22;683;48.738;9.226;2023-07-30T12:03:11;23.90;85.00
1379;DHT22;683;48.738;9.226;2023-07-30T12:05:39;24.40;84.10
1379;DHT22;683;48.738;9.226;2023-07-30T12:08:16;25.00;85.30
1379;DHT22;683;48.738;9.226;2023-07-30T12:10:46;25.70;81.70
1379;DHT22;683;48.738;9.226;2023-07-30T12:13:16;26.00;78.20
1379;DHT22;683;48.738;9.226;2023-07-30T12:15:51;26.00;75.80
1379;DHT22;683;48.738;9.226;2023-07-30T12:18:18;25.80;75.00
1379;DHT22;683;48.738;9.226;2023-07-30T12:20:46;25.60;75.80
1379;DHT22;683;48.738;9.226;2023-07-30T12:23:14;26.00;77.20
1379;DHT22;683;48.738;9.226;2023-07-30T12:25:44;26.70;74.50
1379;DHT22;683;48.738;9.226;2023-07-30T12:28:12;27.80;71.50
1379;DHT22;683;48.738;9.226;2023-07-30T12:30:39;28.70;67.10
1379;DHT22;683;48.738;9.226;2023-07-30T12:33:06;28.70;64.70
1379;DHT22;683;48.738;9.226;2023-07-30T12:35:33;29.10;62.20
1379;DHT22;683;48.738;9.226;2023-07-30T12:38:03;29.80;61.30
1379;DHT22;683;48.738;9.226;2023-07-30T12:40:31;30.30;59.10
1379;DHT22;683;48.738;9.226;2023-07-30T12:43:03;30.00;58.80
1379;DHT22;683;48.738;9.226;2023-07-30T12:45:30;29.50;58.20
1379;DHT22;683;48.738;9.226;2023-07-30T12:47:57;28.70;59.00
1379;DHT22;683;48.738;9.226;2023-07-30T12:50:24;27.70;60.40
1379;DHT22;683;48.738;9.226;2023-07-30T12:52:51;27.10;61.70
1379;DHT22;683;48.738;9.226;2023-07-30T12:55:20;27.30;62.10
1379;DHT22;683;48.738;9.226;2023-07-30T12:57:49;28.50;59.60
1379;DHT22;683;48.738;9.226;2023-07-30T13:00:16;29.40;57.10
1379;DHT22;683;48.738;9.226;2023-07-30T13:02:44;29.80;56.10
1379;DHT22;683;48.738;9.226;2023-07-30T13:05:11;30.10;56.20
1379;DHT22;683;48.738;9.226;2023-07-30T13:07:41;29.90;56.10
1379;DHT22;683;48.738;9.226;2023-07-30T13:10:12;28.90;55.70
1379;DHT22;683;48.738;9.226;2023-07-30T13:12:40;27.90;57.40
1379;DHT22;683;48.738;9.226;2023-07-30T13:15:09;27.50;58.00
1379;DHT22;683;48.738;9.226;2023-07-30T13:17:37;28.20;58.90
1379;DHT22;683;48.738;9.226;2023-07-30T13:20:05;30.00;55.40
1379;DHT22;683;48.738;9.226;2023-07-30T13:22:33;31.60;51.90
1379;DHT22;683;48.738;9.226;2023-07-30T13:25:00;33.10;52.60
1379;DHT22;683;48.738;9.226;2023-07-30T13:27:27;34.60;48.80
1379;DHT22;683;48.738;9.226;2023-07-30T13:29:55;34.90;46.80
1379;DHT22;683;48.738;9.226;2023-07-30T13:32:24;35.20;45.90
1379;DHT22;683;48.738;9.226;2023-07-30T13:34:51;35.90;43.80
1379;DHT22;683;48.738;9.226;2023-07-30T13:37:18;35.40;43.40
1379;DHT22;683;48.738;9.226;2023-07-30T13:39:46;33.50;46.10
1379;DHT22;683;48.738;9.226;2023-07-30T13:42:13;31.30;48.50
1379;DHT22;683;48.738;9.226;2023-07-30T13:44:40;29.40;51.70
1379;DHT22;683;48.738;9.226;2023-07-30T13:47:08;28.20;54.60
1379;DHT22;683;48.738;9.226;2023-07-30T13:49:36;28.80;54.60
1379;DHT22;683;48.738;9.226;2023-07-30T13:52:04;29.80;52.50
1379;DHT22;683;48.738;9.226;2023-07-30T13:54:34;31.30;49.70
1379;DHT22;683;48.738;9.226;2023-07-30T13:57:02;32.20;48.30
1379;DHT22;683;48.738;9.226;2023-07-30T13:59:30;31.90;47.70
1379;DHT22;683;48.738;9.226;2023-07-30T14:01:57;31.50;48.90
1379;DHT22;683;48.738;9.226;2023-07-30T14:04:24;31.80;48.20
1379;DHT22;683;48.738;9.226;2023-07-30T14:06:53;31.50;48.30
1379;DHT22;683;48.738;9.226;2023-07-30T14:09:20;32.30;47.30
1379;DHT22;683;48.738;9.226;2023-07-30T14:11:47;32.90;45.90
1379;DHT22;683;48.738;9.226;2023-07-30T14:14:14;33.40;45.90
1379;DHT22;683;48.738;9.226;2023-07-30T14:16:41;34.20;43.90
1379;DHT22;683;48.738;9.226;2023-07-30T14:19:09;35.10;42.90
1379;DHT22;683;48.738;9.226;2023-07-30T14:21:36;34.80;42.50
1379;DHT22;683;48.738;9.226;2023-07-30T14:24:05;33.40;44.00
1379;DHT22;683;48.738;9.226;2023-07-30T14:26:32;33.00;45.00
1379;DHT22;683;48.738;9.226;2023-07-30T14:28:59;33.00;44.40
1379;DHT22;683;48.738;9.226;2023-07-30T14:31:26;31.80;45.50
1379;DHT22;683;48.738;9.226;2023-07-30T14:33:53;30.00;48.40
1379;DHT22;683;48.738;9.226;2023-07-30T14:36:20;29.60;50.20
1379;DHT22;683;48.738;9.226;2023-07-30T14:38:51;31.10;47.70
1379;DHT22;683;48.738;9.226;2023-07-30T14:41:19;32.60;45.60
1379;DHT22;683;48.738;9.226;2023-07-30T14:43:46;33.90;43.50
1379;DHT22;683;48.738;9.226;2023-07-30T14:46:13;33.80;42.40
1379;DHT22;683;48.738;9.226;2023-07-30T14:48:41;33.40;43.00
1379;DHT22;683;48.738;9.226;2023-07-30T14:51:09;31.90;44.40
1379;DHT22;683;48.738;9.226;2023-07-30T14:53:36;30.50;47.10
1379;DHT22;683;48.738;9.226;2023-07-30T14:56:06;31.40;46.40
1379;DHT22;683;48.738;9.226;2023-07-30T14:58:35;30.90;46.00
1379;DHT22;683;48.738;9.226;2023-07-30T15:01:02;30.00;47.00
1379;DHT22;683;48.738;9.226;2023-07-30T15:03:29;29.30;48.50
1379;DHT22;683;48.738;9.226;2023-07-30T15:05:56;30.20;47.30
1379;DHT22;683;48.738;9.226;2023-07-30T15:08:24;30.30;46.50
1379;DHT22;683;48.738;9.226;2023-07-30T15:10:51;29.40;48.20
1379;DHT22;683;48.738;9.226;2023-07-30T15:13:20;29.30;49.00
1379;DHT22;683;48.738;9.226;2023-07-30T15:15:49;29.70;47.80
1379;DHT22;683;48.738;9.226;2023-07-30T15:18:16;29.60;46.90
1379;DHT22;683;48.738;9.226;2023-07-30T15:20:45;29.80;46.70
1379;DHT22;683;48.738;9.226;2023-07-30T15:23:15;30.20;45.80
1379;DHT22;683;48.738;9.226;2023-07-30T15:25:44;30.70;45.40
1379;DHT22;683;48.738;9.226;2023-07-30T15:28:14;32.30;43.70
1379;DHT22;683;48.738;9.226;2023-07-30T15:30:41;33.80;40.90
1379;DHT22;683;48.738;9.226;2023-07-30T15:33:11;34.90;39.60
1379;DHT22;683;48.738;9.226;2023-07-30T15:35:43;35.30;37.90
1379;DHT22;683;48.738;9.226;2023-07-30T15:38:12;34.90;37.80
1379;DHT22;683;48.738;9.226;2023-07-30T15:40:40;34.50;37.90
1379;DHT22;683;48.738;9.226;2023-07-30T15:43:08;34.60;37.90
1379;DHT22;683;48.738;9.226;2023-07-30T15:45:37;35.10;36.80
1379;DHT22;683;48.738;9.226;2023-07-30T15:48:08;35.50;35.00
1379;DHT22;683;48.738;9.226;2023-07-30T15:50:37;34.00;36.20
1379;DHT22;683;48.738;9.226;2023-07-30T15:53:04;33.10;37.40
1379;DHT22;683;48.738;9.226;2023-07-30T15:55:32;33.20;37.50
1379;DHT22;683;48.738;9.226;2023-07-30T15:58:00;33.70;37.00
1379;DHT22;683;48.738;9.226;2023-07-30T16:00:27;33.90;36.60
1379;DHT22;683;48.738;9.226;2023-07-30T16:02:54;33.10;36.30
1379;DHT22;683;48.738;9.226;2023-07-30T16:05:21;32.10;38.20
1379;DHT22;683;48.738;9.226;2023-07-30T16:07:49;31.70;38.70
1379;DHT22;683;48.738;9.226;2023-07-30T16:10:16;30.30;40.20
1379;DHT22;683;48.738;9.226;2023-07-30T16:12:44;29.80;42.50
1379;DHT22;683;48.738;9.226;2023-07-30T16:15:12;30.80;40.90
1379;DHT22;683;48.738;9.226;2023-07-30T16:17:40;31.70;39.70
1379;DHT22;683;48.738;9.226;2023-07-30T16:20:08;32.00;39.00
1379;DHT22;683;48.738;9.226;2023-07-30T16:22:35;32.80;38.30